Terminal Aerodrome Forecast
Issued by NWS Sioux Falls, SD

Home | Current Version | Previous Version | Graphics & Text | Print | Product List | Glossary On
Versions: 1 2 3 4 5 6 7 8 9 10 11 12 13 14 15
000
FTUS43 KFSD 171130
TAFFSD
TAF
KFSD 171130Z 1712/1812 13004KT P6SM SCT040
     FM171700 07006KT P6SM BKN050
     FM180200 10005KT P6SM SCT050
     FM181000 13006KT 6SM BR SCT010=

USA.gov is the U.S. government's official web portal to all federal, state and local government web resources and services.